createdAt,value
2024-02-21T00:02:22.096Z,5.78
2024-02-21T00:04:49.189Z,5.32
2024-02-21T00:07:15.930Z,5.30
2024-02-21T00:09:42.605Z,5.15
2024-02-21T00:12:09.380Z,5.28
2024-02-21T00:14:35.942Z,5.20
2024-02-21T00:17:02.578Z,5.05
2024-02-21T00:19:29.224Z,4.57
2024-02-21T00:22:52.285Z,4.88
2024-02-21T00:25:18.948Z,5.28
2024-02-21T00:27:45.493Z,4.72
2024-02-21T00:30:12.349Z,5.57
2024-02-21T00:32:38.895Z,4.60
2024-02-21T00:35:05.704Z,4.97
2024-02-21T00:37:33.065Z,4.45
2024-02-21T00:39:59.568Z,4.53
2024-02-21T00:42:26.241Z,4.85
2024-02-21T00:44:55.839Z,5.50
2024-02-21T00:47:22.315Z,4.45
2024-02-21T00:49:49.014Z,4.88
2024-02-21T00:52:15.955Z,3.88
2024-02-21T00:54:50.291Z,5.05
2024-02-21T00:57:20.556Z,4.05
2024-02-21T00:59:47.045Z,4.05
2024-02-21T01:02:13.942Z,4.55
2024-02-21T01:04:40.697Z,4.63
2024-02-21T01:07:07.278Z,5.35
2024-02-21T01:09:33.822Z,3.85
2024-02-21T01:12:00.385Z,4.15
2024-02-21T01:14:26.963Z,3.75
2024-02-21T01:16:53.705Z,4.00
2024-02-21T01:19:20.608Z,4.75
2024-02-21T01:21:52.864Z,4.07
2024-02-21T01:24:19.432Z,4.38
2024-02-21T01:26:45.922Z,3.92
2024-02-21T01:29:12.410Z,3.75
2024-02-21T01:31:39.066Z,4.18
2024-02-21T01:34:05.925Z,4.07
2024-02-21T01:36:32.610Z,3.92
2024-02-21T01:38:59.121Z,3.65
2024-02-21T01:41:25.813Z,3.80
2024-02-21T01:43:55.419Z,4.65
2024-02-21T01:46:22.087Z,4.55
2024-02-21T01:48:48.683Z,3.70
2024-02-21T01:51:16.301Z,3.72
2024-02-21T01:53:44.540Z,3.58
2024-02-21T01:56:11.675Z,3.90
2024-02-21T01:58:40.374Z,3.85
2024-02-21T02:01:07.361Z,3.85
2024-02-21T02:03:34.350Z,4.57
2024-02-21T02:06:01.216Z,4.35
2024-02-21T02:08:27.910Z,3.83
2024-02-21T02:10:54.959Z,4.20
2024-02-21T02:13:21.590Z,4.10
2024-02-21T02:15:50.088Z,4.00
2024-02-21T02:18:18.201Z,3.80
2024-02-21T02:20:48.907Z,3.90
2024-02-21T02:23:29.270Z,4.40
2024-02-21T02:25:56.378Z,4.00
2024-02-21T02:28:23.297Z,4.50
2024-02-21T02:30:49.968Z,4.57
2024-02-21T02:33:19.304Z,4.63
2024-02-21T02:35:46.578Z,4.25
2024-02-21T02:38:14.935Z,4.68
2024-02-21T02:40:43.840Z,4.32
2024-02-21T02:43:10.985Z,4.93
2024-02-21T02:45:37.475Z,4.82
2024-02-21T02:48:04.901Z,4.60
2024-02-21T02:50:31.926Z,5.22
2024-02-21T02:52:59.310Z,5.13
2024-02-21T02:55:27.634Z,4.70
2024-02-21T02:57:54.619Z,4.85
2024-02-21T03:00:21.345Z,4.45
2024-02-21T03:02:50.085Z,4.13
2024-02-21T03:05:18.629Z,5.63
2024-02-21T03:07:46.257Z,5.95
2024-02-21T03:10:13.986Z,4.60
2024-02-21T03:12:40.705Z,4.68
2024-02-21T03:15:07.876Z,4.55
2024-02-21T03:17:37.304Z,5.90
2024-02-21T03:23:51.034Z,4.70
2024-02-21T03:26:18.503Z,5.43
2024-02-21T03:28:48.475Z,4.97
2024-02-21T03:31:15.131Z,4.63
2024-02-21T03:33:43.770Z,6.72
2024-02-21T03:36:19.494Z,4.85
2024-02-21T03:38:46.105Z,5.68
2024-02-21T03:41:12.644Z,5.22
2024-02-21T03:43:40.438Z,5.78
2024-02-21T03:46:12.042Z,6.00
2024-02-21T03:48:38.781Z,5.32
2024-02-21T03:51:06.023Z,6.40
2024-02-21T03:53:32.540Z,5.93
2024-02-21T03:56:04.049Z,5.68
2024-02-21T03:58:34.161Z,5.32
2024-02-21T04:01:04.588Z,5.75
2024-02-21T04:03:35.045Z,6.32
2024-02-21T04:06:01.604Z,6.70
2024-02-21T04:08:28.661Z,6.55
2024-02-21T04:10:55.297Z,6.50
2024-02-21T04:13:23.360Z,6.05
2024-02-21T04:15:50.154Z,5.65
2024-02-21T04:18:16.731Z,5.70
2024-02-21T04:20:43.294Z,6.88
2024-02-21T04:23:09.888Z,6.45
2024-02-21T04:25:37.187Z,5.38
2024-02-21T04:28:04.018Z,6.13
2024-02-21T04:30:30.757Z,6.18
2024-02-21T04:32:57.675Z,5.88
2024-02-21T04:35:24.230Z,6.50
2024-02-21T04:37:50.944Z,6.05
2024-02-21T04:40:18.319Z,5.82
2024-02-21T04:42:45.384Z,5.78
2024-02-21T04:45:12.069Z,6.75
2024-02-21T04:47:38.625Z,6.20
2024-02-21T04:50:05.425Z,6.50
2024-02-21T04:52:32.143Z,6.15
2024-02-21T04:55:05.918Z,6.40
2024-02-21T04:57:32.973Z,6.20
2024-02-21T04:59:59.570Z,6.60
2024-02-21T05:02:27.577Z,7.45
2024-02-21T05:04:54.398Z,6.93
2024-02-21T05:07:21.192Z,6.15
2024-02-21T05:09:47.719Z,6.55
2024-02-21T05:12:14.905Z,6.30
2024-02-21T05:14:41.564Z,6.00
2024-02-21T05:17:08.576Z,5.80
2024-02-21T05:19:35.208Z,6.22
2024-02-21T05:22:05.244Z,5.65
2024-02-21T05:24:31.877Z,6.32
2024-02-21T05:26:58.357Z,6.32
2024-02-21T05:29:25.021Z,6.25
2024-02-21T05:31:54.204Z,6.40
2024-02-21T05:34:21.381Z,6.57
2024-02-21T05:36:48.927Z,5.75
2024-02-21T05:39:15.772Z,6.30
2024-02-21T05:41:42.312Z,6.10
2024-02-21T05:44:09.318Z,5.40
2024-02-21T05:46:36.708Z,6.97
2024-02-21T05:49:03.403Z,6.45
2024-02-21T05:51:33.885Z,6.50
2024-02-21T05:54:00.958Z,6.25
2024-02-21T05:56:27.565Z,7.10
2024-02-21T05:58:54.321Z,6.75
2024-02-21T06:01:22.625Z,6.65
2024-02-21T06:03:49.655Z,6.70
2024-02-21T06:06:16.129Z,6.47
2024-02-21T06:08:42.878Z,7.30
2024-02-21T06:11:09.668Z,6.10
2024-02-21T06:13:39.784Z,6.22
2024-02-21T06:16:07.685Z,6.55
2024-02-21T06:18:36.695Z,6.32
2024-02-21T06:21:03.485Z,6.32
2024-02-21T06:27:20.156Z,6.40
2024-02-21T06:29:46.724Z,6.78
2024-02-21T06:32:13.599Z,5.55
2024-02-21T06:34:40.251Z,6.75
2024-02-21T06:37:06.778Z,6.82
2024-02-21T06:39:38.440Z,7.47
2024-02-21T06:42:05.322Z,7.03
2024-02-21T06:44:33.211Z,7.03
2024-02-21T06:47:00.653Z,8.00
2024-02-21T06:49:27.871Z,7.97
2024-02-21T06:51:54.469Z,7.38
2024-02-21T06:54:21.181Z,7.03
2024-02-21T06:56:47.952Z,7.03
2024-02-21T06:59:17.031Z,7.22
2024-02-21T07:01:49.704Z,6.93
2024-02-21T07:04:16.721Z,7.22
2024-02-21T07:06:43.702Z,7.32
2024-02-21T07:09:10.319Z,7.07
2024-02-21T07:11:36.902Z,7.30
2024-02-21T07:14:03.690Z,7.32
2024-02-21T07:16:30.760Z,7.50
2024-02-21T07:18:57.360Z,7.63
2024-02-21T07:21:24.298Z,7.18
2024-02-21T07:23:52.274Z,7.68
2024-02-21T07:26:18.764Z,7.78
2024-02-21T07:28:45.497Z,6.97
2024-02-21T07:31:12.039Z,6.80
2024-02-21T07:33:38.725Z,7.18
2024-02-21T07:36:09.427Z,6.95
2024-02-21T07:38:36.039Z,6.88
2024-02-21T07:41:02.613Z,7.47
2024-02-21T07:43:29.428Z,6.38
2024-02-21T07:45:58.887Z,6.53
2024-02-21T07:48:28.275Z,7.22
2024-02-21T07:50:55.064Z,6.70
2024-02-21T07:53:22.196Z,6.65
2024-02-21T07:55:48.756Z,6.30
2024-02-21T07:58:15.527Z,6.75
2024-02-21T08:00:42.394Z,6.75
2024-02-21T08:03:09.153Z,5.93
2024-02-21T08:05:39.650Z,6.75
2024-02-21T08:08:06.404Z,6.95
2024-02-21T08:10:33.687Z,6.70
2024-02-21T08:13:00.643Z,6.20
2024-02-21T08:15:30.993Z,5.68
2024-02-21T08:18:01.470Z,6.00
2024-02-21T08:20:31.429Z,6.18
2024-02-21T08:22:57.966Z,6.20
2024-02-21T08:25:24.569Z,6.57
2024-02-21T08:27:53.021Z,6.43
2024-02-21T08:30:19.625Z,6.78
2024-02-21T08:32:46.403Z,6.20
2024-02-21T08:35:14.075Z,6.53
2024-02-21T08:37:40.770Z,6.13
2024-02-21T08:40:10.045Z,5.88
2024-02-21T08:42:41.233Z,6.00
2024-02-21T08:45:08.448Z,6.82
2024-02-21T08:47:36.630Z,6.05
2024-02-21T08:50:11.520Z,6.70
2024-02-21T08:52:54.649Z,6.53
2024-02-21T08:55:25.267Z,5.65
2024-02-21T08:57:52.143Z,7.38
2024-02-21T09:00:18.957Z,6.60
2024-02-21T09:02:45.823Z,6.45
2024-02-21T09:05:13.054Z,6.65
2024-02-21T09:07:39.948Z,6.68
2024-02-21T09:10:07.704Z,7.32
2024-02-21T09:12:34.411Z,7.03
2024-02-21T09:15:01.000Z,6.88
2024-02-21T09:17:31.094Z,6.28
2024-02-21T09:20:00.608Z,6.80
2024-02-21T09:22:27.808Z,9.20
2024-02-21T09:24:54.500Z,6.93
2024-02-21T09:27:21.335Z,7.07
2024-02-21T09:29:48.037Z,7.43
2024-02-21T09:32:15.081Z,6.93
2024-02-21T09:34:42.030Z,6.80
2024-02-21T09:37:09.638Z,7.10
2024-02-21T09:39:36.328Z,6.95
2024-02-21T09:42:08.514Z,7.10
2024-02-21T09:44:38.880Z,7.22
2024-02-21T09:47:11.219Z,6.85
2024-02-21T09:49:41.176Z,7.30
2024-02-21T09:52:08.462Z,7.72
2024-02-21T09:54:35.844Z,7.07
2024-02-21T09:57:03.414Z,6.70
2024-02-21T09:59:31.800Z,7.35
2024-02-21T10:02:00.518Z,7.10
2024-02-21T10:04:27.744Z,6.72
2024-02-21T10:06:57.705Z,7.05
2024-02-21T10:09:29.507Z,6.95
2024-02-21T10:11:57.724Z,6.82
2024-02-21T10:14:24.276Z,7.75
2024-02-21T10:17:01.277Z,7.10
2024-02-21T10:19:28.063Z,6.57
2024-02-21T10:22:05.700Z,6.78
2024-02-21T10:24:33.574Z,6.05
2024-02-21T10:27:04.956Z,6.25
2024-02-21T10:29:32.511Z,6.13
2024-02-21T10:32:10.072Z,6.10
2024-02-21T10:34:38.272Z,6.00
2024-02-21T10:37:06.629Z,6.30
2024-02-21T10:39:34.307Z,5.50
2024-02-21T10:42:05.444Z,5.85
2024-02-21T10:44:34.585Z,6.03
2024-02-21T10:47:11.906Z,5.60
2024-02-21T10:49:41.488Z,5.50
2024-02-21T10:52:40.657Z,5.82
2024-02-21T10:55:32.978Z,5.57
2024-02-21T10:57:59.852Z,5.63
2024-02-21T11:00:31.296Z,5.93
2024-02-21T11:02:59.427Z,5.85
2024-02-21T11:05:26.889Z,5.88
2024-02-21T11:07:53.542Z,5.50
2024-02-21T11:10:26.594Z,5.70
2024-02-21T11:13:12.123Z,5.40
2024-02-21T11:15:39.366Z,5.07
2024-02-21T11:18:06.907Z,4.35
2024-02-21T11:20:40.579Z,4.93
2024-02-21T11:23:09.728Z,4.80
2024-02-21T11:25:36.572Z,4.93
2024-02-21T11:28:08.703Z,4.50
2024-02-21T11:30:39.748Z,5.13
2024-02-21T11:33:09.454Z,4.80
2024-02-21T11:35:37.455Z,4.70
2024-02-21T11:38:13.542Z,4.10
2024-02-21T11:40:41.722Z,4.05
2024-02-21T11:43:09.089Z,3.75
2024-02-21T11:45:35.724Z,4.22
2024-02-21T11:48:05.109Z,3.67
2024-02-21T11:50:36.397Z,3.13
2024-02-21T11:53:03.913Z,3.42
2024-02-21T11:55:30.543Z,3.60
2024-02-21T11:57:57.086Z,3.35
2024-02-21T12:00:25.670Z,3.30
2024-02-21T12:02:52.224Z,3.47
2024-02-21T12:05:20.377Z,3.30
2024-02-21T12:07:47.434Z,2.97
2024-02-21T12:10:14.831Z,3.00
2024-02-21T12:12:42.143Z,2.58
2024-02-21T12:15:09.990Z,2.85
2024-02-21T12:17:40.999Z,3.38
2024-02-21T12:20:13.271Z,2.92
2024-02-21T12:22:40.934Z,3.08
2024-02-21T12:25:24.525Z,2.72
2024-02-21T12:27:51.238Z,2.70
2024-02-21T12:30:21.097Z,2.78
2024-02-21T12:32:50.195Z,3.03
2024-02-21T12:35:17.584Z,2.50
2024-02-21T12:37:44.268Z,2.88
2024-02-21T12:40:14.936Z,2.47
2024-02-21T12:42:42.433Z,2.83
2024-02-21T12:45:09.610Z,2.72
2024-02-21T12:47:36.379Z,2.83
2024-02-21T12:50:04.788Z,2.85
2024-02-21T12:52:32.648Z,2.50
2024-02-21T12:54:59.966Z,2.83
2024-02-21T12:57:27.870Z,2.38
2024-02-21T12:59:55.209Z,2.90
2024-02-21T13:02:22.299Z,2.90
2024-02-21T13:04:49.274Z,2.45
2024-02-21T13:07:16.191Z,2.53
2024-02-21T13:09:42.994Z,2.53
2024-02-21T13:12:10.482Z,2.38
2024-02-21T13:14:40.277Z,3.00
2024-02-21T13:17:07.385Z,2.35
2024-02-21T13:19:34.330Z,2.60
2024-02-21T13:22:01.265Z,2.75
2024-02-21T13:24:28.293Z,2.30
2024-02-21T13:26:54.962Z,2.45
2024-02-21T13:29:21.906Z,2.53
2024-02-21T13:31:48.971Z,2.85
2024-02-21T13:34:15.755Z,2.65
2024-02-21T13:36:47.993Z,2.72
2024-02-21T13:39:17.488Z,2.88
2024-02-21T13:41:44.556Z,2.42
2024-02-21T13:44:11.977Z,2.88
2024-02-21T13:46:44.865Z,2.60
2024-02-21T13:49:11.855Z,2.97
2024-02-21T13:51:38.942Z,2.67
2024-02-21T13:54:05.900Z,2.75
2024-02-21T13:56:32.642Z,3.08
2024-02-21T13:59:01.243Z,3.40
2024-02-21T14:01:29.758Z,2.80
2024-02-21T14:03:59.293Z,2.95
2024-02-21T14:06:26.106Z,3.50
2024-02-21T14:08:52.737Z,3.00
2024-02-21T14:11:19.579Z,3.15
2024-02-21T14:13:46.666Z,3.40
2024-02-21T14:16:14.638Z,4.05
2024-02-21T14:18:44.479Z,3.45
2024-02-21T14:21:17.044Z,3.22
2024-02-21T14:23:44.286Z,3.28
2024-02-21T14:26:11.419Z,3.00
2024-02-21T14:28:38.668Z,3.05
2024-02-21T14:31:07.229Z,2.78
2024-02-21T14:33:34.544Z,3.30
2024-02-21T14:36:02.119Z,3.03
2024-02-21T14:38:29.292Z,2.63
2024-02-21T14:40:56.046Z,2.63
2024-02-21T14:43:23.135Z,2.85
2024-02-21T14:45:50.126Z,2.72
2024-02-21T14:48:16.970Z,2.97
2024-02-21T14:50:46.009Z,3.30
2024-02-21T14:53:12.932Z,2.88
2024-02-21T14:55:39.994Z,2.80
2024-02-21T14:58:09.961Z,3.40
2024-02-21T15:00:36.834Z,3.08
2024-02-21T15:03:04.008Z,3.33
2024-02-21T15:05:31.312Z,2.85
2024-02-21T15:08:03.787Z,2.60
2024-02-21T15:10:30.919Z,2.67
2024-02-21T15:12:57.771Z,2.75
2024-02-21T15:15:24.331Z,2.40
2024-02-21T15:17:51.809Z,2.28
2024-02-21T15:20:20.272Z,2.90
2024-02-21T15:22:47.044Z,2.47
2024-02-21T15:25:19.298Z,1.80
2024-02-21T15:27:46.625Z,2.10
2024-02-21T15:30:14.349Z,2.00
2024-02-21T15:32:44.940Z,2.22
2024-02-21T15:35:11.899Z,2.42
2024-02-21T15:37:39.315Z,2.60
2024-02-21T15:40:09.250Z,2.30
2024-02-21T15:42:36.143Z,2.17
2024-02-21T15:45:06.093Z,2.10
2024-02-21T15:47:33.096Z,1.70
2024-02-21T15:50:02.060Z,2.05
2024-02-21T15:52:28.806Z,2.47
2024-02-21T15:54:55.520Z,2.40
2024-02-21T15:57:23.842Z,2.33
2024-02-21T15:59:51.399Z,1.85
2024-02-21T16:02:18.491Z,1.98
2024-02-21T16:04:45.431Z,2.10
2024-02-21T16:07:12.961Z,2.00
2024-02-21T16:09:39.858Z,2.15
2024-02-21T16:12:10.429Z,2.05
2024-02-21T16:14:39.002Z,1.52
2024-02-21T16:17:08.620Z,2.17
2024-02-21T16:19:35.647Z,2.40
2024-02-21T16:22:06.323Z,2.38
2024-02-21T16:24:33.690Z,2.13
2024-02-21T16:27:00.667Z,1.90
2024-02-21T16:29:27.741Z,2.25
2024-02-21T16:31:54.496Z,2.45
2024-02-21T16:34:21.322Z,2.35
2024-02-21T16:36:48.077Z,2.28
2024-02-21T16:39:15.398Z,2.63
2024-02-21T16:41:42.235Z,2.70
2024-02-21T16:44:08.855Z,2.97
2024-02-21T16:46:36.287Z,2.10
2024-02-21T16:49:08.267Z,2.42
2024-02-21T16:51:35.215Z,2.15
2024-02-21T16:54:04.936Z,2.85
2024-02-21T16:56:31.910Z,2.28
2024-02-21T16:58:59.234Z,3.05
2024-02-21T17:01:26.091Z,2.22
2024-02-21T17:03:53.056Z,2.65
2024-02-21T17:06:20.009Z,2.63
2024-02-21T17:08:49.297Z,2.80
2024-02-21T17:11:16.159Z,2.72
2024-02-21T17:13:43.520Z,3.08
2024-02-21T17:16:13.709Z,2.33
2024-02-21T17:18:40.894Z,3.03
2024-02-21T17:21:08.282Z,2.72
2024-02-21T17:23:35.016Z,3.47
2024-02-21T17:26:04.955Z,3.05
2024-02-21T17:28:32.838Z,3.03
2024-02-21T17:31:00.036Z,2.83
2024-02-21T17:33:27.012Z,2.97
2024-02-21T17:35:56.144Z,2.88
2024-02-21T17:38:23.175Z,2.90
2024-02-21T17:40:52.074Z,2.67
2024-02-21T17:43:19.585Z,2.90
2024-02-21T17:45:46.400Z,3.10
2024-02-21T17:48:13.201Z,2.70
2024-02-21T17:50:45.372Z,3.10
2024-02-21T17:53:12.989Z,3.10
2024-02-21T17:55:39.855Z,3.05
2024-02-21T17:58:07.964Z,2.80
2024-02-21T18:00:34.522Z,3.25
2024-02-21T18:03:01.818Z,2.58
2024-02-21T18:05:29.528Z,2.90
2024-02-21T18:07:59.222Z,2.58
2024-02-21T18:10:26.108Z,2.78
2024-02-21T18:12:52.752Z,3.10
2024-02-21T18:15:19.455Z,3.10
2024-02-21T18:17:45.970Z,2.83
2024-02-21T18:20:12.837Z,3.63
2024-02-21T18:22:39.562Z,3.15
2024-02-21T18:25:10.548Z,3.70
2024-02-21T18:27:37.669Z,3.38
2024-02-21T18:30:05.244Z,3.35
2024-02-21T18:32:32.255Z,3.55
2024-02-21T18:34:59.433Z,3.22
2024-02-21T18:37:26.068Z,3.13
2024-02-21T18:39:59.521Z,3.47
2024-02-21T18:42:26.205Z,3.10
2024-02-21T18:44:55.085Z,3.13
2024-02-21T18:47:21.840Z,4.10
2024-02-21T18:49:50.571Z,3.35
2024-02-21T18:52:17.528Z,3.60
2024-02-21T18:54:44.117Z,3.40
2024-02-21T18:57:10.729Z,3.70
2024-02-21T18:59:38.521Z,3.45
2024-02-21T19:02:05.209Z,4.45
2024-02-21T19:04:32.435Z,3.75
2024-02-21T19:07:01.133Z,3.63
2024-02-21T19:09:34.325Z,3.95
2024-02-21T19:12:01.317Z,4.05
2024-02-21T19:14:28.005Z,4.15
2024-02-21T19:16:56.882Z,4.43
2024-02-21T19:19:27.100Z,4.03
2024-02-21T19:21:54.336Z,3.65
2024-02-21T19:24:21.182Z,3.60
2024-02-21T19:26:48.219Z,3.75
2024-02-21T19:29:17.110Z,3.90
2024-02-21T19:31:43.908Z,4.50
2024-02-21T19:34:12.262Z,3.58
2024-02-21T19:36:42.101Z,3.85
2024-02-21T19:39:13.442Z,3.78
2024-02-21T19:41:40.100Z,4.50
2024-02-21T19:44:07.487Z,4.10
2024-02-21T19:46:36.729Z,4.43
2024-02-21T19:49:03.640Z,4.40
2024-02-21T19:51:30.564Z,4.22
2024-02-21T19:54:09.713Z,4.25
2024-02-21T19:56:46.432Z,3.65
2024-02-21T19:59:13.299Z,4.05
2024-02-21T20:01:42.838Z,4.13
2024-02-21T20:04:10.094Z,3.65
2024-02-21T20:06:37.574Z,3.42
2024-02-21T20:09:07.774Z,4.07
2024-02-21T20:11:35.548Z,3.70
2024-02-21T20:14:03.386Z,4.03
2024-02-21T20:16:33.950Z,3.80
2024-02-21T20:19:01.167Z,4.03
2024-02-21T20:21:31.067Z,3.85
2024-02-21T20:24:00.564Z,4.03
2024-02-21T20:26:27.360Z,3.75
2024-02-21T20:28:54.261Z,3.97
2024-02-21T20:31:22.962Z,3.53
2024-02-21T20:33:54.406Z,3.70
2024-02-21T20:36:24.172Z,4.00
2024-02-21T20:38:50.974Z,3.60
2024-02-21T20:41:25.721Z,3.42
2024-02-21T20:43:52.582Z,3.53
2024-02-21T20:46:23.163Z,4.10
2024-02-21T20:48:56.684Z,3.80
2024-02-21T20:51:25.825Z,3.97
2024-02-21T20:53:59.672Z,3.38
2024-02-21T20:56:26.467Z,4.18
2024-02-21T20:58:55.863Z,3.95
2024-02-21T21:01:23.065Z,4.00
2024-02-21T21:03:50.029Z,4.20
2024-02-21T21:06:16.855Z,3.92
2024-02-21T21:08:44.086Z,3.80
2024-02-21T21:11:12.590Z,4.13
2024-02-21T21:13:39.628Z,3.55
2024-02-21T21:16:07.293Z,3.50
2024-02-21T21:18:34.145Z,3.33
2024-02-21T21:21:02.100Z,3.67
2024-02-21T21:23:29.406Z,3.17
2024-02-21T21:26:02.279Z,3.17
2024-02-21T21:28:41.608Z,3.05
2024-02-21T21:31:09.912Z,3.13
2024-02-21T21:33:37.174Z,3.30
2024-02-21T21:36:06.603Z,3.10
2024-02-21T21:38:35.660Z,3.50
2024-02-21T21:41:09.957Z,3.33
2024-02-21T21:43:40.701Z,3.10
2024-02-21T21:46:34.743Z,3.22
2024-02-21T21:49:01.613Z,3.25
2024-02-21T21:51:30.556Z,2.83
2024-02-21T21:53:57.584Z,3.42
2024-02-21T21:56:24.710Z,3.10
2024-02-21T21:58:52.990Z,2.85
2024-02-21T22:01:19.726Z,2.88
2024-02-21T22:03:48.683Z,2.90
2024-02-21T22:06:15.384Z,3.10
2024-02-21T22:08:46.482Z,3.30
2024-02-21T22:11:17.702Z,2.90
2024-02-21T22:13:45.124Z,2.90
2024-02-21T22:16:12.133Z,2.60
2024-02-21T22:18:39.456Z,3.63
2024-02-21T22:21:06.257Z,2.90
2024-02-21T22:23:35.304Z,2.80
2024-02-21T22:26:02.495Z,2.72
2024-02-21T22:28:29.336Z,2.58
2024-02-21T22:30:55.971Z,2.80
2024-02-21T22:33:22.892Z,2.92
2024-02-21T22:35:49.596Z,2.50
2024-02-21T22:38:16.586Z,3.05
2024-02-21T22:40:43.430Z,2.63
2024-02-21T22:43:10.203Z,3.25
2024-02-21T22:45:36.838Z,3.03
2024-02-21T22:48:06.526Z,2.90
2024-02-21T22:50:33.135Z,2.72
2024-02-21T22:53:02.078Z,2.83
2024-02-21T22:55:29.695Z,2.90
2024-02-21T22:57:56.243Z,2.67
2024-02-21T23:00:22.937Z,2.78
2024-02-21T23:02:50.603Z,2.90
2024-02-21T23:05:21.288Z,2.58
2024-02-21T23:07:51.280Z,2.55
2024-02-21T23:10:18.017Z,2.90
2024-02-21T23:12:45.086Z,2.45
2024-02-21T23:15:11.921Z,3.15
2024-02-21T23:17:38.509Z,2.42
2024-02-21T23:20:08.173Z,2.80
2024-02-21T23:22:36.205Z,2.63
2024-02-21T23:25:03.318Z,2.30
2024-02-21T23:27:30.549Z,2.83
2024-02-21T23:29:57.159Z,2.70
2024-02-21T23:32:23.914Z,2.38
2024-02-21T23:34:50.454Z,2.42
2024-02-21T23:37:17.147Z,3.03
2024-02-21T23:39:43.833Z,2.30
2024-02-21T23:42:10.698Z,2.63
2024-02-21T23:44:37.441Z,2.60
2024-02-21T23:47:04.838Z,2.63
2024-02-21T23:49:31.653Z,2.38
2024-02-21T23:52:01.338Z,2.55
2024-02-21T23:54:27.991Z,2.10
2024-02-21T23:56:54.725Z,2.30
2024-02-21T23:59:21.358Z,2.33
